Denver, Colorado
Traffic Map
Current Weather Conditions
Denver, Colorado
Scattered Clouds
Scattered Clouds
12°
Feels Like: 12°
Wind Chill: 12° Ceiling: Unl
Heat Index: 12° Visibility: 10mi
Dew Point: -1° Wind: 6mph
Humidity: 40% Direction: 220° (SW)
Pressure: 30.16in Gusts: 0mph
Raw Report DataKBKF 280458Z 22005KT 10SM SCT120 12/M01 A3016 RMK AO2A SLP164 T01191013
Traffic Incident Summary
Active as of:
Severity:
Category:
InformationThere was an issue retrieving the traffic information for this location. Please try a different location or try again shortly.
Advertisements
Track Severe Weather on mobile